createdAt,value
2023-04-04T00:01:34.849Z,99848.19
2023-04-04T00:04:40.998Z,99852.27
2023-04-04T00:07:46.703Z,99858.24
2023-04-04T00:10:52.519Z,99861.14
2023-04-04T00:13:59.313Z,99858.94
2023-04-04T00:17:05.716Z,99864.22
2023-04-04T00:20:11.749Z,99868.62
2023-04-04T00:23:17.833Z,99868.28
2023-04-04T00:26:25.832Z,99871.84
2023-04-04T00:29:31.437Z,99864.52
2023-04-04T00:32:37.489Z,99858.57
2023-04-04T00:35:42.335Z,99868.41
2023-04-04T00:38:48.343Z,99870.91
2023-04-04T00:41:53.649Z,99863.42
2023-04-04T00:44:59.526Z,99869.73
2023-04-04T00:48:04.295Z,99862.50
2023-04-04T00:51:10.227Z,99864.02
2023-04-04T00:54:16.012Z,99866.38
2023-04-04T00:57:21.962Z,99872.50
2023-04-04T01:00:29.823Z,99872.79
2023-04-04T01:03:36.466Z,99876.70
2023-04-04T01:06:42.244Z,99876.50
2023-04-04T01:09:48.853Z,99872.06
2023-04-04T01:12:55.441Z,99882.26
2023-04-04T01:16:01.092Z,99876.77
2023-04-04T01:19:07.496Z,99880.51
2023-04-04T01:22:13.942Z,99880.34
2023-04-04T01:25:22.309Z,99885.29
2023-04-04T01:28:29.484Z,99885.94
2023-04-04T01:31:48.210Z,99892.45
2023-04-04T01:35:15.206Z,99893.48
2023-04-04T01:38:35.131Z,99887.55
2023-04-04T01:41:42.007Z,99887.73
2023-04-04T01:44:47.109Z,99886.72
2023-04-04T01:47:56.509Z,99891.89
2023-04-04T01:51:04.269Z,99889.44
2023-04-04T01:54:10.186Z,99887.44
2023-04-04T01:57:15.886Z,99889.45
2023-04-04T02:00:23.655Z,99889.99
2023-04-04T02:03:29.710Z,99889.80
2023-04-04T02:06:36.670Z,99897.83
2023-04-04T02:09:42.242Z,99895.80
2023-04-04T02:12:48.160Z,99898.30
2023-04-04T02:15:56.162Z,99887.28
2023-04-04T02:19:02.337Z,99886.69
2023-04-04T02:22:07.937Z,99878.03
2023-04-04T02:25:14.999Z,99878.71
2023-04-04T02:28:21.521Z,99879.20
2023-04-04T02:31:27.254Z,99871.91
2023-04-04T02:34:33.364Z,99873.23
2023-04-04T02:37:39.783Z,99878.16
2023-04-04T02:40:49.497Z,99874.39
2023-04-04T02:43:55.126Z,99885.71
2023-04-04T02:47:00.866Z,99886.87
2023-04-04T02:50:05.746Z,99886.13
2023-04-04T02:53:18.847Z,99885.08
2023-04-04T02:56:26.668Z,99887.19
2023-04-04T02:59:32.907Z,99885.59
2023-04-04T03:02:39.149Z,99889.39
2023-04-04T03:05:46.026Z,99895.06
2023-04-04T03:08:53.398Z,99892.95
2023-04-04T03:11:59.274Z,99891.77
2023-04-04T03:15:05.482Z,99896.77
2023-04-04T03:18:10.953Z,99898.53
2023-04-04T03:21:18.291Z,99905.27
2023-04-04T03:24:24.264Z,99906.34
2023-04-04T03:27:30.520Z,99908.87
2023-04-04T03:30:36.909Z,99914.80
2023-04-04T03:33:46.018Z,99923.28
2023-04-04T03:36:53.664Z,99917.58
2023-04-04T03:39:59.341Z,99919.77
2023-04-04T03:43:05.909Z,99922.82
2023-04-04T03:46:20.639Z,99918.25
2023-04-04T03:49:26.519Z,99924.91
2023-04-04T03:52:33.531Z,99938.92
2023-04-04T03:55:39.112Z,99950.99
2023-04-04T03:58:44.710Z,99952.92
2023-04-04T04:01:54.436Z,99953.54
2023-04-04T04:05:01.533Z,99962.46
2023-04-04T04:08:08.930Z,99962.87
2023-04-04T04:11:19.793Z,99971.68
2023-04-04T04:14:24.434Z,99975.42
2023-04-04T04:17:31.774Z,99979.38
2023-04-04T04:20:39.330Z,99984.08
2023-04-04T04:23:45.787Z,99983.23
2023-04-04T04:26:51.946Z,99986.16
2023-04-04T04:29:58.370Z,99986.05
2023-04-04T04:33:06.097Z,99977.59
2023-04-04T04:36:22.005Z,99978.03
2023-04-04T04:39:31.686Z,99981.06
2023-04-04T04:42:40.348Z,99974.84
2023-04-04T04:45:48.339Z,99972.22
2023-04-04T04:48:55.270Z,99979.40
2023-04-04T04:52:04.014Z,99983.73
2023-04-04T04:55:11.958Z,99987.55
2023-04-04T04:58:24.683Z,99990.69
2023-04-04T05:01:31.908Z,99991.41
2023-04-04T05:04:38.307Z,99986.74
2023-04-04T05:07:44.847Z,99997.47
2023-04-04T05:10:52.189Z,99988.72
2023-04-04T05:13:59.476Z,99996.44
2023-04-04T05:17:08.100Z,99988.94
2023-04-04T05:20:15.867Z,99992.77
2023-04-04T05:23:22.579Z,99989.34
2023-04-04T05:26:28.203Z,99989.34
2023-04-04T05:29:38.893Z,99992.46
2023-04-04T05:32:45.677Z,99987.59
2023-04-04T05:35:53.480Z,99993.75
2023-04-04T05:39:00.745Z,99996.16
2023-04-04T05:42:10.043Z,100000.13
2023-04-04T05:45:18.670Z,99998.95
2023-04-04T05:48:27.636Z,99999.98
2023-04-04T05:51:33.285Z,100000.97
2023-04-04T05:54:41.881Z,100003.64
2023-04-04T05:57:49.061Z,100004.27
2023-04-04T06:00:56.204Z,100014.27
2023-04-04T06:04:04.694Z,100013.52
2023-04-04T06:07:15.920Z,100021.91
2023-04-04T06:10:24.150Z,100019.42
2023-04-04T06:13:30.876Z,100023.30
2023-04-04T06:16:39.033Z,100027.31
2023-04-04T06:19:45.678Z,100023.72
2023-04-04T06:22:55.570Z,100032.06
2023-04-04T06:26:02.455Z,100030.77
2023-04-04T06:29:04.957Z,100020.28
2023-04-04T06:32:12.597Z,100023.70
2023-04-04T06:35:20.746Z,100023.66
2023-04-04T06:38:27.873Z,100026.01
2023-04-04T06:41:36.140Z,100025.97
2023-04-04T06:44:41.097Z,100024.93
2023-04-04T06:47:50.349Z,100029.69
2023-04-04T06:50:56.254Z,100028.31
2023-04-04T06:54:04.319Z,100033.41
2023-04-04T06:57:10.160Z,100038.06
2023-04-04T07:00:17.800Z,100036.43
2023-04-04T07:03:24.184Z,100037.50
2023-04-04T07:06:31.173Z,100034.00
2023-04-04T07:09:37.027Z,100036.63
2023-04-04T07:12:41.777Z,100044.48
2023-04-04T07:15:47.820Z,100033.68
2023-04-04T07:18:56.741Z,100041.36
2023-04-04T07:22:02.427Z,100037.83
2023-04-04T07:25:08.137Z,100038.33
2023-04-04T07:28:13.600Z,100043.64
2023-04-04T07:31:21.986Z,100048.24
2023-04-04T07:34:28.396Z,100041.98
2023-04-04T07:37:34.135Z,100036.91
2023-04-04T07:40:40.011Z,100029.65
2023-04-04T07:43:46.273Z,100030.34
2023-04-04T07:47:06.357Z,100026.37
2023-04-04T07:50:00.498Z,100020.41
2023-04-04T07:53:07.384Z,100020.08
2023-04-04T07:56:14.094Z,100018.33
2023-04-04T07:59:20.090Z,100017.67
2023-04-04T08:02:27.204Z,100016.30
2023-04-04T08:05:33.688Z,100016.41
2023-04-04T08:08:39.436Z,100012.23
2023-04-04T08:11:49.038Z,100009.56
2023-04-04T08:15:06.926Z,100010.48
2023-04-04T08:18:14.643Z,100010.70
2023-04-04T08:21:20.114Z,100016.61
2023-04-04T08:24:28.251Z,100023.13
2023-04-04T08:27:52.855Z,100013.86
2023-04-04T08:31:11.302Z,100004.67
2023-04-04T08:34:17.003Z,100003.48
2023-04-04T08:37:23.052Z,100010.23
2023-04-04T08:40:39.248Z,100009.32
2023-04-04T08:43:57.088Z,100006.82
2023-04-04T08:47:03.502Z,100002.39
2023-04-04T08:50:10.593Z,99994.47
2023-04-04T08:53:16.704Z,99992.87
2023-04-04T08:56:23.193Z,99982.78
2023-04-04T08:59:30.732Z,99977.63
2023-04-04T09:02:42.734Z,99987.38
2023-04-04T09:05:48.463Z,99994.04
2023-04-04T09:08:54.667Z,99994.88
2023-04-04T09:12:00.152Z,99995.47
2023-04-04T09:15:06.950Z,100000.75
2023-04-04T09:18:12.457Z,100000.69
2023-04-04T09:21:26.355Z,99997.09
2023-04-04T09:24:31.924Z,99988.63
2023-04-04T09:27:36.955Z,99985.24
2023-04-04T09:30:44.384Z,99982.50
2023-04-04T09:33:53.130Z,99988.59
2023-04-04T09:37:00.394Z,99975.29
2023-04-04T09:40:06.333Z,99972.95
2023-04-04T09:43:23.526Z,99963.30
2023-04-04T09:46:28.860Z,99956.75
2023-04-04T09:49:38.883Z,99956.34
2023-04-04T09:52:51.908Z,99953.69
2023-04-04T09:55:58.701Z,99959.80
2023-04-04T09:59:05.206Z,99961.27
2023-04-04T10:02:17.025Z,99967.61
2023-04-04T10:05:27.123Z,99966.23
2023-04-04T10:08:35.193Z,99963.84
2023-04-04T10:11:46.169Z,99964.68
2023-04-04T10:14:52.523Z,99965.84
2023-04-04T10:18:02.105Z,99972.27
2023-04-04T10:24:18.432Z,99974.08
2023-04-04T10:27:24.262Z,99965.71
2023-04-04T10:30:29.485Z,99956.97
2023-04-04T10:34:12.672Z,99965.67
2023-04-04T10:37:25.698Z,99963.67
2023-04-04T10:40:33.375Z,99964.13
2023-04-04T10:43:40.622Z,99959.59
2023-04-04T10:46:46.248Z,99963.87
2023-04-04T10:49:52.948Z,99962.75
2023-04-04T10:52:59.583Z,99960.55
2023-04-04T10:56:05.008Z,99955.55
2023-04-04T10:59:30.579Z,99961.31
2023-04-04T11:03:00.069Z,99958.03
2023-04-04T11:06:09.250Z,99956.62
2023-04-04T11:09:15.830Z,99950.94
2023-04-04T11:12:26.361Z,99946.81
2023-04-04T11:15:35.247Z,99952.53
2023-04-04T11:19:00.810Z,99934.66
2023-04-04T11:22:06.489Z,99936.48
2023-04-04T11:25:17.930Z,99936.48
2023-04-04T11:28:28.624Z,99927.06
2023-04-04T11:31:41.918Z,99939.26
2023-04-04T11:34:51.269Z,99935.23
2023-04-04T11:38:10.164Z,99940.73
2023-04-04T11:41:17.360Z,99942.01
2023-04-04T11:44:24.469Z,99948.66
2023-04-04T11:47:30.161Z,99946.25
2023-04-04T11:50:35.458Z,99938.45
2023-04-04T11:53:41.139Z,99923.66
2023-04-04T11:56:54.394Z,99920.80
2023-04-04T12:00:02.022Z,99918.56
2023-04-04T12:03:08.275Z,99913.81
2023-04-04T12:06:14.786Z,99898.02
2023-04-04T12:09:22.268Z,99910.73
2023-04-04T12:12:29.341Z,99911.79
2023-04-04T12:15:38.106Z,99911.38
2023-04-04T12:18:44.722Z,99917.40
2023-04-04T12:21:52.755Z,99919.63
2023-04-04T12:25:01.168Z,99910.61
2023-04-04T12:28:07.017Z,99919.59
2023-04-04T12:31:13.340Z,99915.69
2023-04-04T12:34:18.331Z,99910.30
2023-04-04T12:37:25.951Z,99908.71
2023-04-04T12:40:32.454Z,99908.92
2023-04-04T12:43:40.859Z,99903.22
2023-04-04T12:46:53.898Z,99901.84
2023-04-04T12:50:04.061Z,99899.61
2023-04-04T12:53:27.434Z,99906.39
2023-04-04T12:56:18.370Z,99899.83
2023-04-04T12:59:24.011Z,99899.95
2023-04-04T13:02:32.105Z,99895.39
2023-04-04T13:05:41.979Z,99890.11
2023-04-04T13:08:49.985Z,99888.59
2023-04-04T13:12:16.123Z,99891.47
2023-04-04T13:15:21.780Z,99887.86
2023-04-04T13:18:36.987Z,99882.80
2023-04-04T13:21:42.409Z,99885.44
2023-04-04T13:24:47.813Z,99869.23
2023-04-04T13:27:54.288Z,99870.09
2023-04-04T13:30:59.673Z,99872.83
2023-04-04T13:34:05.749Z,99868.17
2023-04-04T13:37:11.275Z,99865.10
2023-04-04T13:40:17.631Z,99860.52
2023-04-04T13:43:22.857Z,99853.78
2023-04-04T13:46:28.173Z,99852.91
2023-04-04T13:49:33.646Z,99852.28
2023-04-04T13:52:39.346Z,99841.19
2023-04-04T13:56:07.657Z,99855.03
2023-04-04T13:58:56.604Z,99855.97
2023-04-04T14:02:03.754Z,99860.97
2023-04-04T14:05:09.396Z,99859.48
2023-04-04T14:08:14.953Z,99849.84
2023-04-04T14:11:21.396Z,99859.14
2023-04-04T14:14:26.527Z,99863.58
2023-04-04T14:17:32.829Z,99863.58
2023-04-04T14:20:38.873Z,99876.16
2023-04-04T14:23:45.983Z,99871.51
2023-04-04T14:26:52.261Z,99871.82
2023-04-04T14:29:58.458Z,99872.48
2023-04-04T14:33:04.925Z,99871.73
2023-04-04T14:36:11.140Z,99868.36
2023-04-04T14:39:17.544Z,99870.23
2023-04-04T14:42:23.584Z,99868.73
2023-04-04T14:45:30.991Z,99869.70
2023-04-04T14:48:36.864Z,99870.29
2023-04-04T14:51:43.502Z,99870.95
2023-04-04T14:54:49.576Z,99873.16
2023-04-04T15:01:03.720Z,99863.77
2023-04-04T15:04:10.042Z,99861.64
2023-04-04T15:07:15.654Z,99866.20
2023-04-04T15:10:22.243Z,99861.92
2023-04-04T15:13:27.585Z,99866.36
2023-04-04T15:16:36.731Z,99861.13
2023-04-04T15:19:43.456Z,99864.58
2023-04-04T15:22:48.745Z,99863.27
2023-04-04T15:25:55.086Z,99865.34
2023-04-04T15:29:01.793Z,99862.50
2023-04-04T15:32:08.326Z,99850.76
2023-04-04T15:35:14.182Z,99839.86
2023-04-04T15:38:20.404Z,99840.78
2023-04-04T15:41:26.505Z,99839.99
2023-04-04T15:44:31.575Z,99836.80
2023-04-04T15:47:36.788Z,99836.95
2023-04-04T15:50:42.483Z,99833.36
2023-04-04T15:53:42.439Z,99830.54
2023-04-04T15:56:47.848Z,99836.25
2023-04-04T15:59:53.766Z,99832.84
2023-04-04T16:03:02.041Z,99834.96
2023-04-04T16:06:09.212Z,99832.25
2023-04-04T16:09:16.780Z,99839.18
2023-04-04T16:12:22.226Z,99835.91
2023-04-04T16:15:28.459Z,99824.55
2023-04-04T16:18:35.012Z,99817.23
2023-04-04T16:21:40.294Z,99821.45
2023-04-04T16:24:46.364Z,99817.08
2023-04-04T16:27:53.712Z,99817.34
2023-04-04T16:31:01.118Z,99808.72
2023-04-04T16:34:06.723Z,99812.27
2023-04-04T16:37:13.374Z,99806.70
2023-04-04T16:40:20.783Z,99802.94
2023-04-04T16:43:25.689Z,99803.39
2023-04-04T16:46:33.024Z,99802.43
2023-04-04T16:49:39.353Z,99805.70
2023-04-04T16:52:46.525Z,99804.48
2023-04-04T16:55:52.699Z,99805.91
2023-04-04T16:59:00.671Z,99798.22
2023-04-04T17:02:06.602Z,99796.64
2023-04-04T17:05:12.824Z,99794.23
2023-04-04T17:08:18.441Z,99800.34
2023-04-04T17:11:24.398Z,99796.77
2023-04-04T17:14:30.261Z,99793.77
2023-04-04T17:17:36.237Z,99792.34
2023-04-04T17:20:45.067Z,99785.92
2023-04-04T17:23:50.037Z,99783.72
2023-04-04T17:26:56.247Z,99766.70
2023-04-04T17:30:01.215Z,99783.71
2023-04-04T17:33:08.415Z,99777.45
2023-04-04T17:36:14.265Z,99780.97
2023-04-04T17:39:19.968Z,99772.30
2023-04-04T17:42:25.042Z,99778.94
2023-04-04T17:45:30.699Z,99773.92
2023-04-04T17:48:38.048Z,99781.50
2023-04-04T17:51:44.502Z,99777.92
2023-04-04T17:54:50.281Z,99790.19
2023-04-04T17:57:56.525Z,99776.72
2023-04-04T18:01:04.523Z,99786.23
2023-04-04T18:04:11.719Z,99780.39
2023-04-04T18:07:17.231Z,99782.02
2023-04-04T18:10:24.841Z,99778.91
2023-04-04T18:13:30.965Z,99761.71
2023-04-04T18:16:40.083Z,99765.23
2023-04-04T18:19:45.224Z,99753.02
2023-04-04T18:22:50.128Z,99751.70
2023-04-04T18:25:55.360Z,99744.03
2023-04-04T18:29:00.794Z,99738.06
2023-04-04T18:32:06.104Z,99738.33
2023-04-04T18:35:11.771Z,99742.01
2023-04-04T18:38:18.002Z,99725.02
2023-04-04T18:41:24.298Z,99717.59
2023-04-04T18:44:30.018Z,99711.77
2023-04-04T18:47:35.773Z,99705.33
2023-04-04T18:50:42.398Z,99709.70
2023-04-04T18:53:50.855Z,99713.45
2023-04-04T18:56:56.137Z,99712.08
2023-04-04T19:00:01.973Z,99713.72
2023-04-04T19:03:09.944Z,99703.55
2023-04-04T19:06:19.927Z,99713.45
2023-04-04T19:09:25.677Z,99698.55
2023-04-04T19:12:32.094Z,99699.50
2023-04-04T19:15:37.393Z,99705.65
2023-04-04T19:18:42.420Z,99690.98
2023-04-04T19:21:47.670Z,99694.39
2023-04-04T19:24:53.340Z,99681.92
2023-04-04T19:27:59.207Z,99677.97
2023-04-04T19:31:05.441Z,99672.82
2023-04-04T19:34:13.867Z,99681.50
2023-04-04T19:37:21.395Z,99664.55
2023-04-04T19:40:29.628Z,99672.06
2023-04-04T19:43:36.201Z,99659.14
2023-04-04T19:46:43.440Z,99660.50
2023-04-04T19:49:51.416Z,99643.95
2023-04-04T19:52:57.798Z,99664.14
2023-04-04T19:56:04.541Z,99651.25
2023-04-04T19:59:15.674Z,99652.16
2023-04-04T20:02:19.915Z,99657.25
2023-04-04T20:05:47.393Z,99660.95
2023-04-04T20:08:59.884Z,99661.15
2023-04-04T20:12:04.848Z,99662.92
2023-04-04T20:15:13.736Z,99663.30
2023-04-04T20:18:19.017Z,99661.99
2023-04-04T20:21:33.713Z,99658.94
2023-04-04T20:24:40.168Z,99650.30
2023-04-04T20:27:45.987Z,99655.63
2023-04-04T20:30:52.730Z,99648.05
2023-04-04T20:33:59.205Z,99646.42
2023-04-04T20:37:05.283Z,99639.14
2023-04-04T20:40:24.346Z,99624.74
2023-04-04T20:43:30.418Z,99618.42
2023-04-04T20:46:38.880Z,99612.10
2023-04-04T20:49:45.055Z,99600.05
2023-04-04T20:52:50.528Z,99618.95
2023-04-04T20:55:56.926Z,99611.79
2023-04-04T20:59:02.725Z,99606.25
2023-04-04T21:02:08.558Z,99594.39
2023-04-04T21:05:14.914Z,99594.45
2023-04-04T21:08:40.104Z,99586.28
2023-04-04T21:11:46.490Z,99584.30
2023-04-04T21:14:51.563Z,99576.84
2023-04-04T21:17:58.005Z,99568.64
2023-04-04T21:21:08.984Z,99563.42
2023-04-04T21:24:19.455Z,99559.00
2023-04-04T21:27:27.352Z,99551.59
2023-04-04T21:30:51.833Z,99566.83
2023-04-04T21:34:00.565Z,99594.59
2023-04-04T21:37:09.280Z,99573.09
2023-04-04T21:40:14.499Z,99561.63
2023-04-04T21:43:19.849Z,99554.21
2023-04-04T21:46:26.697Z,99557.31
2023-04-04T21:49:32.741Z,99553.29
2023-04-04T21:52:38.127Z,99548.28
2023-04-04T21:55:43.919Z,99546.77
2023-04-04T21:58:50.158Z,99537.97
2023-04-04T22:01:55.191Z,99532.48
2023-04-04T22:05:02.815Z,99530.41
2023-04-04T22:08:02.003Z,99530.75
2023-04-04T22:11:10.753Z,99534.50
2023-04-04T22:14:16.143Z,99531.38
2023-04-04T22:17:24.727Z,99528.02
2023-04-04T22:20:30.413Z,99521.42
2023-04-04T22:23:37.769Z,99513.81
2023-04-04T22:26:44.068Z,99514.69
2023-04-04T22:29:50.425Z,99511.07
2023-04-04T22:32:56.594Z,99509.28
2023-04-04T22:36:01.412Z,99512.76
2023-04-04T22:39:08.479Z,99508.19
2023-04-04T22:42:14.672Z,99506.13
2023-04-04T22:45:20.863Z,99498.73
2023-04-04T22:48:29.469Z,99497.61
2023-04-04T22:51:35.248Z,99514.48
2023-04-04T22:54:42.375Z,99512.27
2023-04-04T22:57:48.777Z,99501.49
2023-04-04T23:00:54.733Z,99502.48
2023-04-04T23:04:00.531Z,99500.66
2023-04-04T23:07:05.420Z,99494.27
2023-04-04T23:13:35.504Z,99497.53
2023-04-04T23:16:42.053Z,99498.02
2023-04-04T23:19:49.028Z,99498.87
2023-04-04T23:22:55.353Z,99481.81
2023-04-04T23:26:01.717Z,99481.75
2023-04-04T23:29:08.783Z,99475.19
2023-04-04T23:32:14.107Z,99473.64
2023-04-04T23:35:19.388Z,99464.06
2023-04-04T23:38:25.328Z,99462.45
2023-04-04T23:41:31.038Z,99461.40
2023-04-04T23:44:37.405Z,99460.38
2023-04-04T23:47:42.855Z,99463.54
2023-04-04T23:50:47.634Z,99470.34
2023-04-04T23:53:53.743Z,99483.45
2023-04-04T23:57:00.248Z,99474.91
